createdAt,value
2022-11-03T00:01:52.459Z,0.80
2022-11-03T00:04:37.991Z,0.80
2022-11-03T00:07:23.408Z,1.08
2022-11-03T00:10:09.021Z,0.77
2022-11-03T00:12:54.772Z,1.08
2022-11-03T00:15:48.301Z,0.90
2022-11-03T00:18:34.634Z,0.93
2022-11-03T00:21:22.450Z,0.98
2022-11-03T00:24:07.954Z,1.17
2022-11-03T00:26:53.553Z,1.33
2022-11-03T00:29:38.972Z,0.70
2022-11-03T00:32:24.500Z,0.85
2022-11-03T00:35:10.100Z,0.50
2022-11-03T00:37:55.718Z,1.50
2022-11-03T00:40:41.041Z,1.05
2022-11-03T00:43:27.649Z,1.25
2022-11-03T00:46:13.888Z,1.10
2022-11-03T00:48:59.391Z,0.70
2022-11-03T00:51:44.857Z,0.75
2022-11-03T00:54:30.084Z,1.20
2022-11-03T00:57:15.458Z,0.70
2022-11-03T01:00:00.817Z,0.77
2022-11-03T01:02:46.383Z,0.63
2022-11-03T01:05:50.295Z,0.80
2022-11-03T01:08:36.681Z,0.75
2022-11-03T01:11:43.287Z,0.63
2022-11-03T01:14:33.510Z,1.00
2022-11-03T01:17:24.879Z,1.08
2022-11-03T01:20:10.922Z,0.73
2022-11-03T01:22:56.162Z,1.10
2022-11-03T01:25:41.573Z,0.90
2022-11-03T01:28:26.880Z,0.88
2022-11-03T01:31:18.792Z,0.65
2022-11-03T01:34:04.003Z,0.60
2022-11-03T01:36:49.509Z,0.90
2022-11-03T01:39:35.087Z,0.68
2022-11-03T01:42:20.455Z,0.50
2022-11-03T01:45:06.298Z,0.70
2022-11-03T01:47:51.635Z,0.50
2022-11-03T01:50:37.739Z,0.93
2022-11-03T01:53:23.795Z,1.00
2022-11-03T01:56:10.682Z,0.65
2022-11-03T01:58:56.195Z,1.13
2022-11-03T02:01:43.223Z,0.57
2022-11-03T02:04:33.824Z,0.85
2022-11-03T02:07:32.158Z,1.25
2022-11-03T02:10:18.267Z,0.70
2022-11-03T02:13:12.711Z,1.05
2022-11-03T02:15:59.796Z,1.65
2022-11-03T02:18:47.219Z,1.10
2022-11-03T02:21:49.020Z,0.93
2022-11-03T02:24:53.823Z,1.00
2022-11-03T02:27:40.928Z,1.08
2022-11-03T02:30:38.835Z,0.95
2022-11-03T02:33:45.497Z,1.00
2022-11-03T02:36:33.085Z,0.90
2022-11-03T02:39:29.078Z,0.80
2022-11-03T02:42:17.887Z,0.45
2022-11-03T02:45:11.914Z,1.10
2022-11-03T02:48:03.224Z,0.90
2022-11-03T02:50:49.376Z,1.10
2022-11-03T02:53:42.654Z,0.57
2022-11-03T02:56:32.529Z,0.90
2022-11-03T02:59:27.807Z,0.88
2022-11-03T03:02:19.941Z,1.05
2022-11-03T03:05:10.433Z,0.80
2022-11-03T03:08:02.129Z,1.08
2022-11-03T03:10:49.019Z,1.15
2022-11-03T03:13:34.351Z,1.02
2022-11-03T03:16:32.571Z,1.23
2022-11-03T03:19:39.468Z,0.98
2022-11-03T03:22:32.229Z,1.00
2022-11-03T03:25:38.792Z,0.98
2022-11-03T03:28:31.469Z,0.82
2022-11-03T03:31:19.876Z,1.30
2022-11-03T03:34:23.739Z,0.95
2022-11-03T03:37:16.162Z,1.50
2022-11-03T03:40:05.563Z,1.08
2022-11-03T03:42:52.233Z,1.17
2022-11-03T03:45:38.753Z,0.77
2022-11-03T03:48:24.497Z,1.35
2022-11-03T03:51:12.823Z,1.40
2022-11-03T03:53:58.519Z,1.00
2022-11-03T03:56:49.127Z,1.30
2022-11-03T03:59:34.839Z,0.93
2022-11-03T04:02:20.423Z,1.05
2022-11-03T04:05:06.284Z,1.13
2022-11-03T04:07:52.032Z,1.35
2022-11-03T04:10:37.657Z,1.90
2022-11-03T04:13:41.420Z,1.00
2022-11-03T04:16:45.665Z,1.08
2022-11-03T04:19:49.786Z,1.05
2022-11-03T04:22:35.254Z,2.25
2022-11-03T04:25:20.670Z,1.15
2022-11-03T04:28:12.785Z,1.73
2022-11-03T04:31:01.695Z,0.70
2022-11-03T04:33:48.345Z,1.55
2022-11-03T04:36:34.063Z,1.05
2022-11-03T04:39:20.798Z,1.58
2022-11-03T04:42:35.802Z,1.02
2022-11-03T04:45:28.784Z,1.50
2022-11-03T04:48:19.827Z,1.20
2022-11-03T04:51:20.178Z,1.00
2022-11-03T04:54:23.585Z,1.10
2022-11-03T04:57:13.200Z,1.23
2022-11-03T04:59:58.900Z,1.35
2022-11-03T05:02:49.055Z,1.00
2022-11-03T05:05:37.437Z,1.15
2022-11-03T05:08:24.393Z,1.23
2022-11-03T05:11:21.272Z,0.82
2022-11-03T05:14:22.219Z,1.25
2022-11-03T05:17:22.223Z,1.60
2022-11-03T05:20:34.656Z,0.90
2022-11-03T05:23:22.995Z,1.75
2022-11-03T05:26:18.359Z,1.90
2022-11-03T05:29:13.474Z,1.33
2022-11-03T05:31:59.038Z,0.95
2022-11-03T05:34:48.242Z,1.02
2022-11-03T05:37:35.660Z,0.88
2022-11-03T05:40:26.137Z,1.05
2022-11-03T05:43:14.799Z,1.38
2022-11-03T05:46:03.326Z,1.17
2022-11-03T05:48:49.609Z,1.13
2022-11-03T05:51:41.988Z,0.70
2022-11-03T05:54:32.099Z,1.00
2022-11-03T05:57:18.395Z,0.98
2022-11-03T06:00:05.275Z,0.82
2022-11-03T06:02:59.073Z,1.23
2022-11-03T06:05:44.571Z,1.08
2022-11-03T06:08:39.032Z,1.80
2022-11-03T06:11:31.613Z,1.88
2022-11-03T06:14:24.661Z,1.40
2022-11-03T06:17:21.625Z,0.90
2022-11-03T06:20:15.193Z,0.73
2022-11-03T06:23:00.995Z,1.13
2022-11-03T06:25:46.977Z,1.33
2022-11-03T06:28:39.297Z,1.13
2022-11-03T06:31:28.170Z,1.17
2022-11-03T06:34:34.723Z,0.90
2022-11-03T06:37:34.957Z,0.88
2022-11-03T06:40:20.162Z,1.10
2022-11-03T06:43:22.845Z,0.90
2022-11-03T06:46:34.506Z,0.80
2022-11-03T06:49:23.050Z,0.75
2022-11-03T06:52:26.105Z,1.08
2022-11-03T06:55:13.987Z,1.30
2022-11-03T06:58:12.535Z,0.80
2022-11-03T07:01:03.473Z,1.33
2022-11-03T07:03:52.604Z,1.00
2022-11-03T07:06:38.154Z,1.73
2022-11-03T07:09:27.892Z,2.05
2022-11-03T07:12:18.624Z,0.90
2022-11-03T07:15:11.257Z,1.25
2022-11-03T07:17:57.666Z,1.65
2022-11-03T07:20:43.289Z,0.75
2022-11-03T07:23:31.001Z,1.17
2022-11-03T07:26:16.776Z,1.50
2022-11-03T07:29:02.496Z,1.05
2022-11-03T07:31:49.624Z,1.08
2022-11-03T07:34:35.303Z,0.90
2022-11-03T07:37:24.445Z,0.52
2022-11-03T07:40:23.631Z,0.73
2022-11-03T07:43:28.293Z,1.02
2022-11-03T07:46:19.822Z,1.27
2022-11-03T07:49:09.118Z,0.75
2022-11-03T07:51:57.530Z,0.73
2022-11-03T07:54:43.473Z,1.20
2022-11-03T07:57:30.736Z,1.10
2022-11-03T08:00:22.812Z,0.60
2022-11-03T08:03:41.359Z,1.38
2022-11-03T08:06:27.305Z,0.75
2022-11-03T08:09:12.895Z,1.23
2022-11-03T08:11:58.504Z,1.08
2022-11-03T08:14:44.168Z,1.60
2022-11-03T08:17:29.998Z,1.52
2022-11-03T08:20:15.561Z,1.58
2022-11-03T08:26:06.696Z,1.50
2022-11-03T08:28:52.392Z,1.90
2022-11-03T08:31:38.231Z,2.35
2022-11-03T08:34:23.697Z,1.38
2022-11-03T08:37:09.032Z,1.63
2022-11-03T08:39:54.467Z,1.40
2022-11-03T08:42:39.985Z,2.20
2022-11-03T08:45:25.602Z,1.27
2022-11-03T08:48:10.914Z,2.58
2022-11-03T08:50:56.718Z,1.35
2022-11-03T08:53:43.163Z,1.70
2022-11-03T08:56:28.743Z,1.83
2022-11-03T08:59:14.516Z,1.63
2022-11-03T09:01:59.933Z,2.05
2022-11-03T09:04:45.367Z,3.05
2022-11-03T09:10:38.416Z,2.80
2022-11-03T09:13:28.096Z,2.83
2022-11-03T09:16:13.748Z,2.83
2022-11-03T09:18:59.277Z,2.47
2022-11-03T09:21:44.565Z,3.30
2022-11-03T09:24:30.991Z,3.28
2022-11-03T09:27:16.299Z,3.28
2022-11-03T09:30:16.964Z,3.63
2022-11-03T09:33:02.336Z,3.85
2022-11-03T09:35:47.528Z,3.40
2022-11-03T09:38:33.090Z,2.50
2022-11-03T09:41:26.229Z,3.20
2022-11-03T09:44:13.862Z,1.85
2022-11-03T09:46:59.985Z,1.92
2022-11-03T09:49:45.719Z,1.00
2022-11-03T09:52:32.137Z,1.20
2022-11-03T09:55:26.321Z,1.45
2022-11-03T09:58:17.490Z,1.23
2022-11-03T10:01:03.191Z,0.90
2022-11-03T10:03:48.725Z,0.82
2022-11-03T10:06:34.050Z,1.38
2022-11-03T10:09:20.844Z,1.65
2022-11-03T10:12:09.332Z,1.02
2022-11-03T10:14:55.524Z,0.88
2022-11-03T10:17:42.079Z,1.08
2022-11-03T10:20:29.336Z,1.13
2022-11-03T10:23:14.903Z,0.98
2022-11-03T10:26:10.097Z,1.20
2022-11-03T10:29:04.244Z,0.93
2022-11-03T10:31:52.495Z,0.80
2022-11-03T10:34:39.597Z,1.20
2022-11-03T10:37:26.876Z,0.77
2022-11-03T10:40:51.981Z,1.65
2022-11-03T10:43:39.822Z,0.80
2022-11-03T10:49:39.205Z,1.00
2022-11-03T10:52:30.081Z,1.20
2022-11-03T10:55:19.178Z,1.08
2022-11-03T10:58:08.060Z,1.00
2022-11-03T11:00:54.012Z,0.90
2022-11-03T11:03:44.868Z,0.93
2022-11-03T11:06:31.365Z,1.20
2022-11-03T11:09:28.146Z,1.10
2022-11-03T11:12:25.084Z,1.00
2022-11-03T11:15:44.667Z,0.95
2022-11-03T11:18:30.155Z,1.58
2022-11-03T11:21:15.812Z,0.75
2022-11-03T11:24:01.433Z,0.85
2022-11-03T11:26:48.176Z,0.90
2022-11-03T11:29:36.064Z,0.90
2022-11-03T11:32:39.666Z,1.15
2022-11-03T11:35:27.888Z,0.55
2022-11-03T11:38:45.508Z,0.90
2022-11-03T11:42:09.942Z,1.10
2022-11-03T11:45:00.204Z,0.93
2022-11-03T11:47:48.336Z,1.00
2022-11-03T11:50:34.313Z,1.10
2022-11-03T11:53:26.276Z,1.02
2022-11-03T11:56:16.867Z,1.15
2022-11-03T11:59:02.968Z,1.42
2022-11-03T12:01:53.653Z,1.63
2022-11-03T12:04:39.094Z,1.17
2022-11-03T12:07:35.416Z,1.13
2022-11-03T12:10:26.277Z,1.35
2022-11-03T12:13:52.579Z,1.30
2022-11-03T12:16:38.300Z,1.00
2022-11-03T12:19:46.691Z,0.98
2022-11-03T12:22:40.238Z,1.52
2022-11-03T12:25:37.201Z,1.42
2022-11-03T12:28:36.468Z,1.13
2022-11-03T12:31:21.932Z,1.20
2022-11-03T12:34:07.490Z,0.88
2022-11-03T12:36:56.160Z,1.58
2022-11-03T12:39:42.147Z,1.30
2022-11-03T12:42:27.472Z,0.85
2022-11-03T12:45:13.810Z,0.77
2022-11-03T12:47:59.968Z,1.85
2022-11-03T12:50:45.474Z,0.85
2022-11-03T12:53:30.997Z,0.43
2022-11-03T12:56:18.194Z,0.88
2022-11-03T12:59:03.771Z,0.75
2022-11-03T13:01:49.286Z,1.02
2022-11-03T13:04:34.964Z,1.13
2022-11-03T13:07:25.765Z,1.25
2022-11-03T13:10:13.132Z,0.90
2022-11-03T13:12:58.872Z,0.75
2022-11-03T13:15:44.320Z,1.15
2022-11-03T13:18:29.717Z,1.17
2022-11-03T13:21:14.949Z,1.42
2022-11-03T13:24:00.341Z,0.95
2022-11-03T13:26:45.796Z,0.90
2022-11-03T13:29:35.369Z,1.33
2022-11-03T13:32:21.421Z,0.85
2022-11-03T13:35:12.424Z,1.10
2022-11-03T13:37:59.003Z,0.80
2022-11-03T13:41:05.238Z,0.85
2022-11-03T13:43:49.809Z,1.13
2022-11-03T13:46:35.388Z,1.10
2022-11-03T13:49:59.352Z,0.63
2022-11-03T13:52:28.647Z,0.45
2022-11-03T14:01:24.936Z,1.17
2022-11-03T14:07:16.146Z,1.40
2022-11-03T14:10:03.862Z,1.00
2022-11-03T14:12:50.122Z,1.10
2022-11-03T14:15:35.904Z,0.98
2022-11-03T14:18:21.469Z,1.17
2022-11-03T14:21:06.823Z,1.13
2022-11-03T14:23:52.678Z,1.02
2022-11-03T14:26:42.542Z,1.25
2022-11-03T14:29:28.737Z,1.52
2022-11-03T14:32:14.203Z,1.17
2022-11-03T14:34:59.853Z,1.70
2022-11-03T14:37:45.437Z,1.13
2022-11-03T14:40:49.324Z,1.40
2022-11-03T14:43:35.339Z,1.33
2022-11-03T14:46:20.977Z,1.95
2022-11-03T14:49:06.712Z,1.83
2022-11-03T14:51:52.105Z,2.03
2022-11-03T14:54:37.705Z,1.48
2022-11-03T14:57:23.217Z,1.88
2022-11-03T15:00:11.302Z,1.50
2022-11-03T15:02:56.901Z,1.92
2022-11-03T15:05:45.761Z,1.50
2022-11-03T15:08:32.477Z,1.83
2022-11-03T15:11:18.251Z,1.40
2022-11-03T15:14:04.044Z,2.20
2022-11-03T15:16:49.623Z,1.33
2022-11-03T15:19:34.913Z,2.13
2022-11-03T15:22:20.445Z,1.98
2022-11-03T15:27:55.014Z,2.03
2022-11-03T15:30:40.406Z,2.17
2022-11-03T15:33:26.347Z,2.00
2022-11-03T15:36:12.394Z,1.20
2022-11-03T15:38:58.342Z,1.40
2022-11-03T15:41:44.055Z,1.30
2022-11-03T15:44:30.085Z,0.70
2022-11-03T15:47:15.763Z,0.63
2022-11-03T15:50:01.775Z,0.47
2022-11-03T15:52:47.467Z,0.40
2022-11-03T15:55:32.824Z,0.68
2022-11-03T15:58:18.634Z,0.47
2022-11-03T16:01:05.225Z,0.50
2022-11-03T16:03:51.228Z,0.85
2022-11-03T16:07:06.313Z,0.55
2022-11-03T16:09:42.665Z,0.90
2022-11-03T16:12:28.065Z,0.85
2022-11-03T16:15:13.516Z,0.77
2022-11-03T16:18:02.910Z,0.77
2022-11-03T16:20:48.528Z,1.10
2022-11-03T16:23:33.857Z,0.57
2022-11-03T16:26:24.264Z,1.17
2022-11-03T16:29:09.661Z,1.02
2022-11-03T16:31:55.134Z,0.88
2022-11-03T16:34:40.626Z,1.25
2022-11-03T16:37:29.323Z,1.42
2022-11-03T16:40:19.128Z,2.60
2022-11-03T16:43:05.180Z,2.15
2022-11-03T16:45:50.677Z,1.50
2022-11-03T16:48:36.360Z,1.58
2022-11-03T16:51:22.393Z,1.48
2022-11-03T16:54:07.662Z,1.27
2022-11-03T16:56:54.812Z,1.50
2022-11-03T16:59:40.549Z,2.00
2022-11-03T17:02:28.561Z,2.03
2022-11-03T17:05:16.745Z,2.17
2022-11-03T17:08:02.372Z,1.85
2022-11-03T17:10:47.910Z,2.60
2022-11-03T17:13:33.445Z,3.08
2022-11-03T17:16:19.009Z,3.10
2022-11-03T17:19:04.803Z,3.40
2022-11-03T17:21:50.586Z,10.50
2022-11-03T17:24:36.087Z,7.10
2022-11-03T17:27:38.323Z,6.18
2022-11-03T17:30:28.394Z,6.30
2022-11-03T17:33:17.523Z,4.53
2022-11-03T17:36:02.903Z,2.47
2022-11-03T17:38:48.606Z,3.53
2022-11-03T17:41:36.802Z,4.03
2022-11-03T17:44:22.185Z,3.97
2022-11-03T17:47:08.028Z,2.55
2022-11-03T17:49:53.414Z,2.38
2022-11-03T17:52:39.034Z,3.67
2022-11-03T17:55:30.494Z,5.97
2022-11-03T17:58:16.630Z,6.60
2022-11-03T18:01:02.610Z,5.22
2022-11-03T18:03:48.176Z,3.33
2022-11-03T18:06:34.041Z,2.65
2022-11-03T18:09:19.596Z,2.15
2022-11-03T18:12:23.698Z,2.45
2022-11-03T18:15:19.792Z,2.65
2022-11-03T18:18:15.818Z,4.03
2022-11-03T18:21:01.987Z,6.85
2022-11-03T18:23:47.820Z,6.30
2022-11-03T18:26:33.043Z,5.13
2022-11-03T18:29:18.596Z,3.60
2022-11-03T18:32:03.958Z,3.85
2022-11-03T18:34:49.633Z,6.00
2022-11-03T18:37:35.928Z,4.63
2022-11-03T18:40:21.649Z,2.50
2022-11-03T18:43:13.711Z,2.47
2022-11-03T18:45:59.298Z,2.45
2022-11-03T18:48:44.685Z,1.40
2022-11-03T18:51:30.051Z,1.48
2022-11-03T18:57:12.265Z,1.75
2022-11-03T18:59:58.121Z,1.50
2022-11-03T19:02:43.700Z,1.48
2022-11-03T19:05:29.923Z,1.50
2022-11-03T19:08:21.077Z,1.30
2022-11-03T19:11:06.742Z,2.00
2022-11-03T19:13:52.628Z,1.95
2022-11-03T19:16:45.830Z,2.60
2022-11-03T19:19:41.416Z,1.23
2022-11-03T19:22:27.280Z,1.75
2022-11-03T19:25:14.681Z,1.85
2022-11-03T19:28:00.029Z,1.80
2022-11-03T19:30:45.667Z,2.67
2022-11-03T19:33:31.575Z,2.70
2022-11-03T19:36:18.379Z,3.03
2022-11-03T19:39:05.247Z,3.30
2022-11-03T19:42:10.749Z,2.22
2022-11-03T19:44:58.782Z,3.45
2022-11-03T19:48:23.191Z,3.67
2022-11-03T19:51:07.686Z,3.95
2022-11-03T19:53:53.412Z,4.28
2022-11-03T19:56:39.415Z,4.63
2022-11-03T19:59:26.377Z,4.53
2022-11-03T20:02:13.611Z,4.18
2022-11-03T20:04:59.835Z,4.30
2022-11-03T20:07:46.889Z,4.22
2022-11-03T20:10:36.014Z,4.18
2022-11-03T20:13:29.247Z,4.05
2022-11-03T20:16:17.314Z,3.88
2022-11-03T20:19:03.452Z,3.30
2022-11-03T20:21:49.155Z,3.58
2022-11-03T20:24:34.792Z,4.55
2022-11-03T20:27:21.652Z,3.03
2022-11-03T20:30:13.114Z,2.95
2022-11-03T20:32:58.695Z,3.28
2022-11-03T20:35:46.217Z,4.43
2022-11-03T20:38:33.372Z,3.60
2022-11-03T20:41:19.069Z,3.60
2022-11-03T20:44:04.820Z,3.47
2022-11-03T20:46:50.415Z,4.30
2022-11-03T20:49:36.120Z,3.45
2022-11-03T20:52:21.946Z,5.80
2022-11-03T20:55:23.429Z,3.78
2022-11-03T20:58:15.938Z,4.47
2022-11-03T21:01:02.034Z,3.45
2022-11-03T21:04:03.095Z,3.85
2022-11-03T21:06:48.742Z,3.70
2022-11-03T21:09:34.548Z,3.88
2022-11-03T21:12:20.114Z,4.70
2022-11-03T21:15:52.255Z,4.22
2022-11-03T21:19:01.784Z,3.58
2022-11-03T21:21:47.666Z,3.47
2022-11-03T21:24:33.488Z,3.83
2022-11-03T21:27:19.268Z,4.65
2022-11-03T21:30:05.863Z,3.65
2022-11-03T21:32:51.881Z,3.58
2022-11-03T21:35:38.698Z,4.05
2022-11-03T21:38:24.370Z,4.10
2022-11-03T21:41:28.646Z,3.20
2022-11-03T21:44:17.592Z,3.92
2022-11-03T21:47:03.559Z,3.97
2022-11-03T21:49:49.655Z,4.22
2022-11-03T21:52:35.656Z,3.38
2022-11-03T21:55:21.623Z,5.88
2022-11-03T21:58:07.875Z,3.92
2022-11-03T22:00:53.833Z,4.85
2022-11-03T22:03:39.592Z,4.00
2022-11-03T22:06:25.819Z,3.42
2022-11-03T22:09:11.321Z,4.65
2022-11-03T22:11:56.837Z,4.40
2022-11-03T22:15:01.234Z,4.25
2022-11-03T22:17:46.994Z,3.97
2022-11-03T22:20:51.279Z,3.85
2022-11-03T22:24:14.964Z,3.88
2022-11-03T22:27:00.708Z,5.35
2022-11-03T22:30:04.958Z,4.40
2022-11-03T22:32:55.594Z,4.00
2022-11-03T22:35:59.792Z,4.22
2022-11-03T22:39:03.923Z,4.40
2022-11-03T22:42:08.125Z,4.22
2022-11-03T22:45:12.043Z,4.55
2022-11-03T22:47:57.867Z,3.90
2022-11-03T22:50:44.474Z,4.68
2022-11-03T22:53:50.083Z,4.18
2022-11-03T22:56:35.600Z,4.68
2022-11-03T22:59:21.077Z,3.83
2022-11-03T23:02:06.763Z,3.90
2022-11-03T23:04:52.257Z,3.90
2022-11-03T23:07:41.264Z,3.45
2022-11-03T23:10:28.549Z,4.43
2022-11-03T23:13:13.759Z,3.25
2022-11-03T23:15:59.152Z,3.28
2022-11-03T23:19:03.483Z,3.05
2022-11-03T23:21:50.705Z,3.92
2022-11-03T23:24:54.838Z,3.38
2022-11-03T23:27:40.522Z,3.90
2022-11-03T23:30:25.699Z,3.22
2022-11-03T23:33:11.309Z,4.03
2022-11-03T23:35:56.987Z,3.08
2022-11-03T23:38:42.941Z,3.08
2022-11-03T23:41:29.273Z,3.55
2022-11-03T23:44:16.271Z,4.03
2022-11-03T23:47:20.547Z,4.07
2022-11-03T23:50:06.625Z,3.60
2022-11-03T23:52:51.912Z,3.28
2022-11-03T23:55:57.154Z,2.90
2022-11-03T23:58:42.779Z,3.47
